Terminal Aerodrome Forecast
Issued by NWS

Home | Current Version | Previous Version | Text Only | Print | Product List | Glossary On
Versions: 1 2 3 4 5 6 7 8 9 10 11 12 13 14
000
FTUS44 KMAF 020500
TAFPEQ
TAF
KPEQ 020532Z 0206/0306 25006KT P6SM SKC
     FM021700 25015G25KT P6SM SKC
     FM022100 24021G31KT P6SM SCT250
     FM030100 25015KT P6SM SCT250=

USA.gov is the U.S. government's official web portal to all federal, state and local government web resources and services.